Time;durP1;ratioP1;P1;durP2;ratioP2;P2;SDS_P1;SDS_P2;PMS_P1;PMS_P2;Temp;Humidity;BMP_temperature;BMP_pressure;BME280_temperature;BME280_humidity;BME280_pressure;Samples;Min_cycle;Max_cycle;Signal;HPM_P1;HPM_P2
2023/08/24 00:02:23;;;;;;;6.35;3.75;;;;;;;-145.69;nan;51802.78;5114850;28;20567;-81
2023/08/24 00:04:49;;;;;;;6.75;3.70;;;;;;;-145.69;nan;51775.06;5114353;28;20201;-82
2023/08/24 00:07:16;;;;;;;5.32;3.70;;;;;;;-145.69;nan;51790.91;5113628;28;20228;-82
2023/08/24 00:09:43;;;;;;;5.82;3.67;;;;;;;-145.69;nan;51779.03;5114669;28;20217;-82
2023/08/24 00:12:10;;;;;;;4.82;3.90;;;;;;;-145.69;nan;51783.00;5114822;28;20659;-82
2023/08/24 00:14:39;;;;;;;5.75;3.92;;;;;;;-145.69;nan;51786.94;5114321;28;20236;-82
2023/08/24 00:17:06;;;;;;;5.65;3.95;;;;;;;-145.69;nan;51832.50;5113982;28;20217;-82
2023/08/24 00:19:33;;;;;;;5.57;3.80;;;;;;;-145.69;nan;51775.06;5114211;28;20278;-81
2023/08/24 00:22:02;;;;;;;6.68;3.67;;;;;;;-145.69;nan;51779.03;5113808;28;20197;-82
2023/08/24 00:24:31;;;;;;;6.22;4.00;;;;;;;-145.69;nan;51779.03;5114777;28;20229;-83
2023/08/24 00:27:01;;;;;;;5.88;3.72;;;;;;;-145.69;nan;51790.91;5114109;28;20229;-82
2023/08/24 00:29:27;;;;;;;6.15;3.85;;;;;;;-145.69;nan;51779.03;5114380;28;20197;-82
2023/08/24 00:31:55;;;;;;;4.05;3.25;;;;;;;-145.69;nan;51771.09;5114051;28;20197;-82
2023/08/24 00:34:22;;;;;;;6.68;3.80;;;;;;;-145.69;nan;51783.00;5114291;28;20269;-82
2023/08/24 00:36:51;;;;;;;7.45;4.07;;;;;;;-145.69;nan;51802.78;5114025;28;20208;-82
2023/08/24 00:39:18;;;;;;;5.68;3.67;;;;;;;-145.69;nan;51834.47;5114221;28;20580;-82
2023/08/24 00:41:45;;;;;;;7.63;4.05;;;;;;;-145.69;nan;51806.75;5095968;28;20194;-82
2023/08/24 00:44:12;;;;;;;5.88;4.28;;;;;;;-145.69;nan;51798.81;5113722;28;20709;-82
2023/08/24 00:46:41;;;;;;;8.35;4.00;;;;;;;-145.69;nan;51786.94;5113891;28;20221;-82
2023/08/24 00:49:09;;;;;;;9.18;4.32;;;;;;;-145.69;nan;51812.69;5113425;28;20203;-82
2023/08/24 00:51:36;;;;;;;7.97;3.83;;;;;;;-145.69;nan;51796.84;5113899;28;20194;-83
2023/08/24 00:54:02;;;;;;;6.07;4.15;;;;;;;-145.69;nan;51836.44;5113633;28;20563;-81
2023/08/24 00:56:32;;;;;;;5.05;3.80;;;;;;;-145.69;nan;51788.94;5112445;28;20206;-81
2023/08/24 00:58:58;;;;;;;8.43;3.55;;;;;;;-145.69;nan;51836.44;5113390;28;20567;-81
2023/08/24 01:01:25;;;;;;;9.40;3.75;;;;;;;-145.69;nan;51812.69;5113539;28;20189;-81
2023/08/24 01:03:52;;;;;;;10.10;3.80;;;;;;;-145.69;nan;51792.88;5113289;28;20197;-82
2023/08/24 01:06:20;;;;;;;6.05;4.05;;;;;;;-145.69;nan;51800.81;5112699;28;20208;-82
2023/08/24 01:08:47;;;;;;;7.30;3.95;;;;;;;-145.69;nan;51806.75;5113683;28;20198;-82
2023/08/24 01:11:27;;;;;;;11.02;4.50;;;;;;;-145.69;nan;51810.72;5113643;28;20204;-82
2023/08/24 01:14:03;;;;;;;4.88;3.50;;;;;;;-145.69;nan;51794.88;5112686;28;20222;-82
2023/08/24 01:16:36;;;;;;;8.57;3.92;;;;;;;-145.69;nan;51755.25;5112959;28;20586;-81
2023/08/24 01:19:06;;;;;;;7.72;3.92;;;;;;;-145.69;nan;51775.06;5113678;28;20262;-82
2023/08/24 01:21:49;;;;;;;6.97;4.45;;;;;;;-145.69;nan;51820.59;5113701;28;20202;-81
2023/08/24 01:24:24;;;;;;;6.82;3.92;;;;;;;-145.69;nan;51798.81;5120188;27;20209;-82
2023/08/24 01:26:56;;;;;;;7.10;3.83;;;;;;;-145.69;nan;51834.47;5113185;28;20216;-82
2023/08/24 01:29:22;;;;;;;11.13;4.10;;;;;;;-145.69;nan;51794.88;5113447;28;20555;-82
2023/08/24 01:31:52;;;;;;;5.78;4.20;;;;;;;-145.69;nan;51806.75;5092564;28;20205;-81
2023/08/24 01:34:20;;;;;;;9.07;4.22;;;;;;;-145.69;nan;51798.81;5100857;28;20204;-81
2023/08/24 01:36:47;;;;;;;4.70;3.35;;;;;;;-145.69;nan;51784.97;5112847;28;20648;-81
2023/08/24 01:39:21;;;;;;;6.38;4.03;;;;;;;-145.69;nan;51783.00;5113294;28;20201;-81
2023/08/24 01:41:55;;;;;;;4.43;3.60;;;;;;;-145.69;nan;51812.69;5113297;28;20201;-81
2023/08/24 01:44:24;;;;;;;6.47;3.92;;;;;;;-145.69;nan;51812.69;5113124;28;20567;-82
2023/08/24 01:46:52;;;;;;;7.03;3.85;;;;;;;-145.69;nan;51830.50;5108425;28;20228;-81
2023/08/24 01:49:20;;;;;;;5.63;4.35;;;;;;;-145.69;nan;51814.66;5113390;28;20254;-81
2023/08/24 01:51:49;;;;;;;9.27;4.30;;;;;;;-145.69;nan;51810.72;5113012;28;20658;-80
2023/08/24 01:54:17;;;;;;;5.53;3.63;;;;;;;-145.69;nan;51814.66;5113089;28;20296;-81
2023/08/24 01:56:46;;;;;;;5.22;4.10;;;;;;;-145.69;nan;51806.75;5112814;28;20200;-81
2023/08/24 01:59:13;;;;;;;8.40;4.22;;;;;;;-145.69;nan;51798.81;5113004;28;20201;-81
2023/08/24 02:01:39;;;;;;;6.15;3.75;;;;;;;-145.69;nan;51800.81;5111884;28;20669;-81
2023/08/24 02:04:06;;;;;;;12.90;3.95;;;;;;;-145.69;nan;51814.66;5112189;28;20197;-81
2023/08/24 02:06:36;;;;;;;7.63;3.25;;;;;;;-145.69;nan;51790.91;5113230;28;20224;-82
2023/08/24 02:09:02;;;;;;;7.10;3.35;;;;;;;-145.69;nan;51810.72;5116787;28;20207;-81
2023/08/24 02:11:29;;;;;;;8.98;3.33;;;;;;;-145.69;nan;51822.59;5116984;28;20287;-81
2023/08/24 02:13:55;;;;;;;7.93;3.80;;;;;;;-145.69;nan;51792.88;5116538;28;20308;-80
2023/08/24 02:16:30;;;;;;;8.52;3.83;;;;;;;-145.69;nan;51765.16;5117066;28;20202;-81
2023/08/24 02:18:57;;;;;;;5.97;3.45;;;;;;;-145.69;nan;51775.06;5116881;28;20208;-81
2023/08/24 02:21:26;;;;;;;8.57;3.97;;;;;;;-145.69;nan;51771.09;5116790;28;20197;-81
2023/08/24 02:23:54;;;;;;;5.05;3.50;;;;;;;-145.69;nan;51786.94;5116553;28;20211;-80
2023/08/24 02:26:21;;;;;;;7.03;4.00;;;;;;;-145.69;nan;51771.09;5116658;28;20197;-81
2023/08/24 02:28:47;;;;;;;4.93;3.38;;;;;;;-145.69;nan;51781.00;5116856;28;20225;-81
2023/08/24 02:31:14;;;;;;;8.48;3.85;;;;;;;-145.69;nan;51784.97;5116501;28;20204;-81
2023/08/24 02:33:42;;;;;;;5.47;3.45;;;;;;;-145.69;nan;51786.94;5116305;28;20552;-80
2023/08/24 02:36:08;;;;;;;8.77;3.72;;;;;;;-145.69;nan;51800.81;5116662;28;20198;-80
2023/08/24 02:38:35;;;;;;;8.63;3.97;;;;;;;-145.69;nan;51786.94;5116447;28;20201;-81
2023/08/24 02:41:03;;;;;;;6.60;3.47;;;;;;;-145.69;nan;51798.81;5116540;28;20197;-80
2023/08/24 02:43:31;;;;;;;5.07;3.30;;;;;;;-145.69;nan;51792.88;5116620;28;20330;-80
2023/08/24 02:46:01;;;;;;;7.05;3.60;;;;;;;-145.69;nan;51775.06;5116520;28;20200;-80
2023/08/24 02:48:27;;;;;;;6.82;3.58;;;;;;;-145.69;nan;51779.03;5116292;28;20275;-81
2023/08/24 02:50:55;;;;;;;6.28;3.60;;;;;;;-145.69;nan;51783.00;5115793;28;20194;-81
2023/08/24 02:53:22;;;;;;;4.55;3.40;;;;;;;-145.69;nan;51777.03;5115174;28;20198;-80
2023/08/24 02:55:49;;;;;;;6.03;3.53;;;;;;;-145.69;nan;51781.00;5116340;28;20212;-80
2023/08/24 02:58:15;;;;;;;6.65;4.03;;;;;;;-145.69;nan;51767.16;5116365;28;20205;-80
2023/08/24 03:00:42;;;;;;;4.45;3.50;;;;;;;-145.69;nan;51771.09;5115733;28;20197;-81
2023/08/24 03:03:08;;;;;;;5.45;3.53;;;;;;;-145.69;nan;51790.91;5115980;28;20292;-80
2023/08/24 03:05:38;;;;;;;6.28;3.50;;;;;;;-145.69;nan;51775.06;5116164;28;20235;-80
2023/08/24 03:08:06;;;;;;;6.85;3.63;;;;;;;-145.69;nan;51773.09;5115616;28;20217;-82
2023/08/24 03:10:35;;;;;;;4.20;3.20;;;;;;;-145.69;nan;51763.19;5115606;28;20200;-81
2023/08/24 03:13:03;;;;;;;6.82;3.55;;;;;;;-145.69;nan;51763.19;5115855;28;20197;-81
2023/08/24 03:15:30;;;;;;;5.25;3.30;;;;;;;-145.69;nan;51769.13;5115923;28;20563;-82
2023/08/24 03:17:57;;;;;;;6.95;3.70;;;;;;;-145.69;nan;51786.94;5115296;28;20259;-82
2023/08/24 03:20:26;;;;;;;6.65;3.33;;;;;;;-145.69;nan;51747.34;5114546;28;20288;-82
2023/08/24 03:22:53;;;;;;;7.03;3.20;;;;;;;-145.69;nan;51773.09;5115782;28;20203;-81
2023/08/24 03:25:21;;;;;;;4.32;3.42;;;;;;;-145.69;nan;51759.22;5115792;28;20201;-82
2023/08/24 03:27:48;;;;;;;11.50;3.75;;;;;;;-145.69;nan;51792.88;5115218;28;20229;-82
2023/08/24 03:30:18;;;;;;;8.20;3.40;;;;;;;-145.69;nan;51786.94;5115112;28;20201;-82
2023/08/24 03:32:44;;;;;;;5.63;3.55;;;;;;;-145.69;nan;51783.00;5118390;27;20223;-82
2023/08/24 03:35:11;;;;;;;5.72;3.38;;;;;;;-145.69;nan;51788.94;5135872;27;20207;-82
2023/08/24 03:37:37;;;;;;;7.45;3.65;;;;;;;-145.69;nan;51784.97;5133333;27;20200;-81
2023/08/24 03:40:06;;;;;;;6.38;3.75;;;;;;;-145.69;nan;51812.69;5115090;28;20229;-82
2023/08/24 03:42:34;;;;;;;5.70;3.50;;;;;;;-145.69;nan;51783.00;5115245;28;20198;-82
2023/08/24 03:45:01;;;;;;;8.77;3.60;;;;;;;-145.69;nan;51792.88;5112121;28;20650;-82
2023/08/24 03:47:28;;;;;;;5.50;3.40;;;;;;;-145.69;nan;51779.03;5114734;28;20287;-82
2023/08/24 03:49:54;;;;;;;7.35;3.47;;;;;;;-145.69;nan;51806.75;5096842;28;20551;-82
2023/08/24 03:52:21;;;;;;;6.22;3.53;;;;;;;-145.69;nan;51783.00;5115347;28;20284;-82
2023/08/24 03:54:48;;;;;;;6.05;4.00;;;;;;;-145.69;nan;51802.78;5115214;28;20214;-82
2023/08/24 03:57:22;;;;;;;4.15;3.47;;;;;;;-145.69;nan;51806.75;5096891;28;20197;-82
2023/08/24 03:59:50;;;;;;;5.43;3.63;;;;;;;-145.69;nan;51775.06;5114322;28;20261;-82
2023/08/24 04:02:17;;;;;;;7.43;3.60;;;;;;;-145.69;nan;51786.94;5114586;28;20660;-82
2023/08/24 04:04:44;;;;;;;4.70;3.40;;;;;;;-145.69;nan;51810.72;5115185;28;20209;-81
2023/08/24 04:07:11;;;;;;;5.55;3.80;;;;;;;-145.69;nan;51810.72;5114749;28;20193;-82
2023/08/24 04:09:38;;;;;;;10.13;3.78;;;;;;;-145.69;nan;51796.84;5114553;28;20222;-82
2023/08/24 04:12:04;;;;;;;5.25;3.60;;;;;;;-145.69;nan;51790.91;5114968;28;20197;-82
2023/08/24 04:14:31;;;;;;;8.25;4.00;;;;;;;-145.69;nan;51794.88;5096219;28;20245;-82
2023/08/24 04:16:59;;;;;;;5.70;4.38;;;;;;;-145.69;nan;51794.88;5114050;28;20672;-82
2023/08/24 04:19:26;;;;;;;6.30;3.35;;;;;;;-145.69;nan;51822.59;5112019;28;20560;-82
2023/08/24 04:21:52;;;;;;;7.53;3.88;;;;;;;-145.69;nan;51814.66;5114551;28;20189;-83
2023/08/24 04:24:19;;;;;;;5.30;3.72;;;;;;;-145.69;nan;51818.63;5114592;28;20201;-83
2023/08/24 04:26:46;;;;;;;5.45;3.72;;;;;;;-145.69;nan;51800.81;5114553;28;20201;-82
2023/08/24 04:29:12;;;;;;;4.80;3.78;;;;;;;-145.69;nan;51834.47;5114048;28;20240;-82
2023/08/24 04:31:40;;;;;;;5.80;3.92;;;;;;;-145.69;nan;51834.47;5114350;28;20205;-82
2023/08/24 04:34:09;;;;;;;6.30;3.92;;;;;;;-145.69;nan;51816.66;5114492;28;20653;-81
2023/08/24 04:36:35;;;;;;;9.57;4.05;;;;;;;-145.69;nan;51806.75;5114421;28;20190;-82
2023/08/24 04:39:02;;;;;;;6.50;4.07;;;;;;;-145.69;nan;51820.59;5114203;28;20280;-83
2023/08/24 04:41:28;;;;;;;6.40;3.95;;;;;;;-145.69;nan;51802.78;5114350;28;20208;-82
2023/08/24 04:43:55;;;;;;;6.70;4.15;;;;;;;-145.69;nan;51810.72;5114480;28;20548;-82
2023/08/24 04:46:21;;;;;;;6.97;3.80;;;;;;;-145.69;nan;51844.38;5114020;28;20666;-82
2023/08/24 04:48:48;;;;;;;5.70;4.10;;;;;;;-145.69;nan;51777.03;5114257;28;20229;-82
2023/08/24 04:51:16;;;;;;;4.15;3.70;;;;;;;-145.69;nan;51806.75;5114506;28;20594;-82
2023/08/24 04:53:43;;;;;;;6.05;4.45;;;;;;;-145.69;nan;51808.72;5113877;28;20194;-82
2023/08/24 04:56:10;;;;;;;4.85;3.85;;;;;;;-145.69;nan;51838.44;5113768;28;20201;-82
2023/08/24 04:58:36;;;;;;;7.55;4.13;;;;;;;-145.69;nan;51822.59;5113937;28;20668;-82
2023/08/24 05:01:03;;;;;;;5.45;3.80;;;;;;;-145.69;nan;51818.63;5113899;28;20204;-81
2023/08/24 05:03:29;;;;;;;6.70;4.10;;;;;;;-145.69;nan;51826.56;5095431;28;20243;-81
2023/08/24 05:05:56;;;;;;;5.40;4.22;;;;;;;-145.69;nan;51830.50;5113611;28;20205;-82
2023/08/24 05:08:24;;;;;;;6.97;3.80;;;;;;;-145.69;nan;51788.94;5113108;28;20232;-81
2023/08/24 05:10:50;;;;;;;7.78;3.75;;;;;;;-145.69;nan;51765.16;5113557;28;20220;-80
2023/08/24 05:13:17;;;;;;;9.73;3.63;;;;;;;-145.69;nan;51812.69;5113279;28;20189;-81
2023/08/24 05:15:43;;;;;;;7.35;3.95;;;;;;;-145.69;nan;51802.78;5113266;28;20197;-80
2023/08/24 05:18:10;;;;;;;6.03;3.70;;;;;;;-145.69;nan;51781.00;5113474;28;20205;-81
2023/08/24 05:20:36;;;;;;;5.90;3.40;;;;;;;-145.69;nan;51779.03;5113370;28;20189;-82
2023/08/24 05:23:03;;;;;;;9.50;3.60;;;;;;;-145.69;nan;51751.31;5113189;28;20219;-80
2023/08/24 05:25:31;;;;;;;5.30;3.80;;;;;;;-145.69;nan;51781.00;5113543;28;20678;-82
2023/08/24 05:27:57;;;;;;;7.93;3.97;;;;;;;-145.69;nan;51769.13;5115806;28;20308;-82
2023/08/24 05:30:24;;;;;;;7.38;4.28;;;;;;;-145.69;nan;51783.00;5125244;27;20194;-82
2023/08/24 05:32:50;;;;;;;5.45;3.47;;;;;;;-145.69;nan;51800.81;5113593;28;20206;-83
2023/08/24 05:35:17;;;;;;;5.47;3.60;;;;;;;-145.69;nan;51783.00;5113184;28;20579;-82
2023/08/24 05:37:43;;;;;;;7.57;4.55;;;;;;;-145.69;nan;51802.78;5113600;28;20201;-82
2023/08/24 05:40:11;;;;;;;7.28;4.13;;;;;;;-145.69;nan;51783.00;5112621;28;20525;-82
2023/08/24 05:42:38;;;;;;;5.80;4.07;;;;;;;-145.69;nan;51800.81;5103999;28;20674;-82
2023/08/24 05:45:06;;;;;;;8.45;3.80;;;;;;;-145.69;nan;51790.91;5113400;28;20197;-82
2023/08/24 05:47:32;;;;;;;6.50;3.60;;;;;;;-145.69;nan;51781.00;5113074;28;20221;-81
2023/08/24 05:49:59;;;;;;;8.48;3.83;;;;;;;-145.69;nan;51781.00;5113068;28;20197;-82
2023/08/24 05:52:25;;;;;;;6.22;4.05;;;;;;;-145.69;nan;51798.81;5112974;28;20197;-82
2023/08/24 05:54:52;;;;;;;7.90;3.97;;;;;;;-145.69;nan;51769.13;5113323;28;20254;-82
2023/08/24 05:57:18;;;;;;;6.40;3.72;;;;;;;-145.69;nan;51771.09;5113688;28;20204;-82
2023/08/24 05:59:46;;;;;;;7.00;3.40;;;;;;;-145.69;nan;51759.22;5113669;28;20307;-82
2023/08/24 06:02:12;;;;;;;7.00;3.58;;;;;;;-145.69;nan;51741.41;5113158;28;20189;-83
2023/08/24 06:04:39;;;;;;;6.40;3.67;;;;;;;-145.69;nan;51735.47;5114147;28;20208;-82
2023/08/24 06:07:06;;;;;;;4.50;3.30;;;;;;;-145.69;nan;51717.66;5113262;28;20620;-82
2023/08/24 06:09:35;;;;;;;5.57;3.55;;;;;;;-145.69;nan;51745.38;5113197;28;20759;-83
2023/08/24 06:12:02;;;;;;;6.68;3.72;;;;;;;-145.69;nan;51747.34;5112674;28;20194;-83
2023/08/24 06:14:30;;;;;;;7.50;3.58;;;;;;;-145.69;nan;51727.53;5112902;28;20312;-83
2023/08/24 06:16:58;;;;;;;5.80;3.30;;;;;;;-145.69;nan;51735.47;5113326;28;20632;-83
2023/08/24 06:19:24;;;;;;;6.88;3.58;;;;;;;-145.69;nan;51727.53;5113055;28;20198;-82
2023/08/24 06:21:51;;;;;;;7.30;3.72;;;;;;;-145.69;nan;51715.66;5112533;28;20205;-82
2023/08/24 06:24:17;;;;;;;6.95;3.45;;;;;;;-145.69;nan;51701.81;5112402;28;20667;-82
2023/08/24 06:26:44;;;;;;;6.03;3.58;;;;;;;-145.69;nan;51755.25;5112707;28;20201;-82
2023/08/24 06:29:10;;;;;;;5.38;3.33;;;;;;;-145.69;nan;51735.47;5112928;28;20225;-83
2023/08/24 06:31:37;;;;;;;7.65;3.55;;;;;;;-145.69;nan;51697.84;5112874;28;20283;-83
2023/08/24 06:34:04;;;;;;;8.30;3.53;;;;;;;-145.69;nan;51719.63;5112460;28;20212;-82
2023/08/24 06:36:31;;;;;;;5.68;3.30;;;;;;;-145.69;nan;51721.59;5112676;28;20205;-82
2023/08/24 06:38:58;;;;;;;6.18;3.45;;;;;;;-145.69;nan;51713.69;5112601;28;20564;-83
2023/08/24 06:41:25;;;;;;;6.05;3.38;;;;;;;-145.69;nan;51695.88;5113092;28;20208;-83
2023/08/24 06:43:53;;;;;;;6.10;3.83;;;;;;;-145.69;nan;51685.97;5111605;28;20598;-83
2023/08/24 06:46:20;;;;;;;6.53;3.63;;;;;;;-145.69;nan;51715.66;5112717;28;20209;-82
2023/08/24 06:48:46;;;;;;;5.65;3.50;;;;;;;-145.69;nan;51721.59;5112402;28;20225;-82
2023/08/24 06:51:14;;;;;;;4.93;3.45;;;;;;;-145.69;nan;51707.75;5112280;28;20652;-83
2023/08/24 06:53:42;;;;;;;5.93;3.53;;;;;;;-145.69;nan;51711.72;5112846;28;20213;-82
2023/08/24 06:56:08;;;;;;;4.43;3.35;;;;;;;-145.69;nan;51691.91;5116813;28;20216;-83
2023/08/24 06:58:35;;;;;;;9.75;3.75;;;;;;;-145.69;nan;51709.72;5116358;28;20194;-82
2023/08/24 07:01:05;;;;;;;6.88;3.65;;;;;;;-145.69;nan;51691.91;5116081;28;20549;-83
2023/08/24 07:03:32;;;;;;;6.57;3.83;;;;;;;-145.69;nan;51703.78;5116323;28;20197;-83
2023/08/24 07:05:59;;;;;;;4.82;3.47;;;;;;;-145.69;nan;51691.91;5116384;28;20202;-83
2023/08/24 07:08:27;;;;;;;5.68;3.55;;;;;;;-145.69;nan;51674.09;5116009;28;20221;-83
2023/08/24 07:10:53;;;;;;;9.55;3.38;;;;;;;-145.69;nan;51687.94;5115599;28;20205;-83
2023/08/24 07:13:20;;;;;;;7.43;3.50;;;;;;;-145.69;nan;51701.81;5115745;28;20193;-83
2023/08/24 07:15:47;;;;;;;4.70;3.40;;;;;;;-145.69;nan;51656.25;5115893;28;20201;-82
2023/08/24 07:18:14;;;;;;;5.60;3.25;;;;;;;-145.69;nan;51680.03;5116015;28;20198;-82
2023/08/24 07:20:40;;;;;;;5.57;3.70;;;;;;;-145.69;nan;51668.16;5115464;28;20583;-82
2023/08/24 07:23:07;;;;;;;6.55;3.78;;;;;;;-145.69;nan;51668.16;5116290;28;20671;-83
2023/08/24 07:25:35;;;;;;;8.73;3.88;;;;;;;-145.69;nan;51689.94;5116122;28;20555;-82
2023/08/24 07:28:03;;;;;;;6.20;3.53;;;;;;;-145.69;nan;51685.97;5116258;28;20223;-83
2023/08/24 07:30:30;;;;;;;7.90;3.47;;;;;;;-145.69;nan;51672.09;5115845;28;20217;-83
2023/08/24 07:32:56;;;;;;;7.20;4.07;;;;;;;-145.69;nan;51680.03;5120132;27;20562;-83
2023/08/24 07:35:24;;;;;;;11.50;4.20;;;;;;;-145.69;nan;51687.94;5115723;28;20205;-83
2023/08/24 07:37:51;;;;;;;10.23;3.45;;;;;;;-145.69;nan;51707.75;5115436;28;20233;-83
2023/08/24 07:40:18;;;;;;;8.20;4.10;;;;;;;-145.69;nan;51670.13;5115015;28;20732;-83
2023/08/24 07:42:46;;;;;;;9.27;3.65;;;;;;;-145.69;nan;51707.75;5114862;28;20227;-83
2023/08/24 07:45:14;;;;;;;6.55;3.38;;;;;;;-145.69;nan;51680.03;5115055;28;20205;-83
2023/08/24 07:47:41;;;;;;;9.05;4.00;;;;;;;-145.69;nan;51705.75;5112583;28;20194;-84
2023/08/24 07:50:09;;;;;;;6.88;4.10;;;;;;;-145.69;nan;51680.03;5094897;28;20225;-83
2023/08/24 07:52:35;;;;;;;7.50;4.15;;;;;;;-145.69;nan;51695.88;5113834;28;20197;-83
2023/08/24 07:55:04;;;;;;;8.77;4.63;;;;;;;-145.69;nan;51705.75;5114976;28;20197;-83
2023/08/24 07:57:31;;;;;;;10.02;4.40;;;;;;;-145.69;nan;51678.03;5114681;28;20201;-83
2023/08/24 08:00:00;;;;;;;7.68;3.75;;;;;;;-145.69;nan;51683.97;5114613;28;20198;-83
2023/08/24 08:02:26;;;;;;;10.40;4.30;;;;;;;-145.69;nan;51687.94;5114420;28;20193;-83
2023/08/24 08:04:57;;;;;;;5.57;3.80;;;;;;;-145.69;nan;51691.91;5114171;28;20204;-83
2023/08/24 08:07:24;;;;;;;7.72;4.20;;;;;;;-145.69;nan;51703.78;5114395;28;20200;-83
2023/08/24 08:09:51;;;;;;;7.18;3.83;;;;;;;-145.69;nan;51693.88;5113833;28;20817;-84
2023/08/24 08:12:17;;;;;;;4.88;3.47;;;;;;;-145.69;nan;51703.78;5114269;28;20198;-84
2023/08/24 08:14:44;;;;;;;8.95;4.40;;;;;;;-145.69;nan;51687.94;5114090;28;20225;-83
2023/08/24 08:17:12;;;;;;;9.52;4.28;;;;;;;-145.69;nan;51670.13;5114106;28;20224;-83
2023/08/24 08:19:39;;;;;;;9.13;4.32;;;;;;;-145.69;nan;51687.94;5114414;28;20204;-83
2023/08/24 08:22:06;;;;;;;7.97;4.15;;;;;;;-145.69;nan;51691.91;5114628;28;20285;-83
2023/08/24 08:24:32;;;;;;;9.30;3.92;;;;;;;-145.69;nan;51705.75;5113806;28;20185;-82
2023/08/24 08:26:59;;;;;;;5.78;3.90;;;;;;;-145.69;nan;51683.97;5114471;28;20190;-83
2023/08/24 08:29:26;;;;;;;8.73;3.90;;;;;;;-145.69;nan;51695.88;5114442;28;20584;-84
2023/08/24 08:31:52;;;;;;;13.55;4.22;;;;;;;-145.69;nan;51695.88;5114549;28;20567;-83
2023/08/24 08:34:20;;;;;;;6.25;4.10;;;;;;;-145.69;nan;51680.03;5113770;28;20209;-83
2023/08/24 08:36:47;;;;;;;9.10;4.10;;;;;;;-145.69;nan;51683.97;5114040;28;20205;-84
2023/08/24 08:39:14;;;;;;;10.93;4.45;;;;;;;-145.69;nan;51680.03;5113967;28;20593;-83
2023/08/24 08:41:43;;;;;;;7.60;4.20;;;;;;;-145.69;nan;51654.28;5114069;28;20197;-83
2023/08/24 08:44:12;;;;;;;8.18;4.72;;;;;;;-145.69;nan;51672.09;5114035;28;20228;-84
2023/08/24 08:46:39;;;;;;;10.57;4.20;;;;;;;-145.69;nan;51664.19;5114265;28;20198;-84
2023/08/24 08:49:08;;;;;;;9.15;4.07;;;;;;;-145.69;nan;51654.28;5114012;28;20222;-83
2023/08/24 08:51:37;;;;;;;7.45;4.22;;;;;;;-145.69;nan;51658.25;5113565;28;20604;-83
2023/08/24 08:54:05;;;;;;;8.68;4.22;;;;;;;-145.69;nan;51658.25;5113722;28;20590;-83
2023/08/24 08:56:32;;;;;;;7.65;4.32;;;;;;;-145.69;nan;51644.38;5114071;28;20197;-83
2023/08/24 08:59:00;;;;;;;9.98;4.70;;;;;;;-145.69;nan;51668.16;5113912;28;20204;-83
2023/08/24 09:01:27;;;;;;;9.40;4.38;;;;;;;-145.69;nan;51664.19;5113660;28;20201;-83
2023/08/24 09:03:54;;;;;;;11.60;4.55;;;;;;;-145.69;nan;51652.31;5113847;28;20200;-84
2023/08/24 09:06:22;;;;;;;8.00;4.25;;;;;;;-145.69;nan;51685.97;5113596;28;20201;-83
2023/08/24 09:08:51;;;;;;;9.15;4.65;;;;;;;-145.69;nan;51648.34;5113961;28;20205;-83
2023/08/24 09:11:18;;;;;;;6.72;4.38;;;;;;;-145.69;nan;51664.19;5111499;28;20663;-84
2023/08/24 09:13:45;;;;;;;6.47;4.53;;;;;;;-145.69;nan;51664.19;5112591;28;20237;-83
2023/08/24 09:16:15;;;;;;;8.10;4.70;;;;;;;-145.69;nan;51642.41;5112899;27;20204;-84
2023/08/24 09:18:44;;;;;;;6.57;4.55;;;;;;;-145.69;nan;51624.59;5113357;28;20292;-84
2023/08/24 09:21:11;;;;;;;9.38;4.32;;;;;;;-145.69;nan;51632.50;5113088;28;20198;-84
2023/08/24 09:23:39;;;;;;;8.07;4.60;;;;;;;-145.69;nan;51610.72;5113012;28;20194;-83
2023/08/24 09:26:07;;;;;;;7.38;4.35;;;;;;;-145.69;nan;51620.63;5113260;28;20212;-84
2023/08/24 09:28:36;;;;;;;9.60;4.35;;;;;;;-145.69;nan;51616.66;5113347;28;20201;-84
2023/08/24 09:31:03;;;;;;;9.05;4.45;;;;;;;-145.69;nan;51648.34;5112968;28;20232;-84
2023/08/24 09:33:30;;;;;;;7.15;4.45;;;;;;;-145.69;nan;51634.47;5109107;28;20288;-82
2023/08/24 09:36:01;;;;;;;11.07;4.28;;;;;;;-145.69;nan;51632.50;5112661;28;20200;-81
2023/08/24 09:38:28;;;;;;;8.60;4.85;;;;;;;-145.69;nan;51644.38;5112673;28;20233;-84
2023/08/24 09:40:56;;;;;;;7.18;4.18;;;;;;;-145.69;nan;51630.53;5114012;28;20287;-84
2023/08/24 09:43:25;;;;;;;6.68;4.43;;;;;;;-145.69;nan;51636.47;5112133;28;20194;-84
2023/08/24 09:45:53;;;;;;;9.80;4.88;;;;;;;-145.69;nan;51640.44;5098006;28;20208;-84
2023/08/24 09:48:20;;;;;;;14.00;4.47;;;;;;;-145.69;nan;51626.56;5092724;28;20198;-85
2023/08/24 09:50:47;;;;;;;12.20;4.90;;;;;;;-145.69;nan;51644.38;5104499;28;20221;-84
2023/08/24 09:53:20;;;;;;;17.65;4.82;;;;;;;-145.69;nan;51606.75;5113321;28;20545;-84
2023/08/24 09:55:53;;;;;;;7.82;4.03;;;;;;;-145.69;nan;51616.66;5103974;28;20194;-84
2023/08/24 09:58:20;;;;;;;7.38;4.47;;;;;;;-145.69;nan;51642.41;5092558;28;20202;-83
2023/08/24 10:00:50;;;;;;;7.32;4.13;;;;;;;-145.69;nan;51620.63;5103413;28;20197;-84
2023/08/24 10:03:20;;;;;;;9.32;4.68;;;;;;;-145.69;nan;51620.63;5112059;28;20549;-84
2023/08/24 10:05:54;;;;;;;11.07;4.78;;;;;;;-145.69;nan;51632.50;5112437;28;20224;-85
2023/08/24 10:08:23;;;;;;;10.43;4.47;;;;;;;-145.69;nan;51606.75;5112650;28;20284;-85
2023/08/24 10:10:58;;;;;;;8.05;4.25;;;;;;;-145.69;nan;51624.59;5112194;28;20228;-86
2023/08/24 10:13:33;;;;;;;11.10;4.53;;;;;;;-145.69;nan;51618.66;5112203;28;20266;-84
2023/08/24 10:16:02;;;;;;;8.43;4.00;;;;;;;-145.69;nan;51596.88;5113126;28;20289;-84
2023/08/24 10:18:29;;;;;;;8.35;4.05;;;;;;;-145.69;nan;51608.75;5113636;28;20229;-85
2023/08/24 10:20:57;;;;;;;7.85;4.22;;;;;;;-145.69;nan;51608.75;5112649;28;20190;-85
2023/08/24 10:23:25;;;;;;;7.70;4.15;;;;;;;-145.69;nan;51604.78;5112464;28;20204;-84
2023/08/24 10:25:53;;;;;;;7.97;4.20;;;;;;;-145.69;nan;51616.66;5089321;28;20228;-84
2023/08/24 10:28:21;;;;;;;13.57;4.68;;;;;;;-145.69;nan;51579.03;5114329;28;20610;-84
2023/08/24 10:30:50;;;;;;;9.27;4.40;;;;;;;-145.69;nan;51596.88;5115514;28;20228;-85
2023/08/24 10:36:00;;;;;;;8.75;4.13;;;;;;;-145.69;nan;51577.06;5115976;28;20204;-84
2023/08/24 10:38:27;;;;;;;8.65;3.83;;;;;;;-145.69;nan;51588.94;5116653;28;20208;-83
2023/08/24 10:40:55;;;;;;;9.55;3.97;;;;;;;-145.69;nan;51559.25;5115951;28;20198;-84
2023/08/24 10:43:22;;;;;;;12.02;4.18;;;;;;;-145.69;nan;51555.28;5116458;28;20219;-84
2023/08/24 10:46:00;;;;;;;17.02;4.32;;;;;;;-145.69;nan;51545.38;5116563;28;20199;-84
2023/08/24 10:48:29;;;;;;;9.55;4.55;;;;;;;-145.69;nan;51557.25;5116264;28;20205;-83
2023/08/24 10:51:19;;;;;;;8.43;3.72;;;;;;;-145.69;nan;51535.50;5115860;28;20225;-84
2023/08/24 10:53:47;;;;;;;10.23;3.78;;;;;;;-145.69;nan;51537.47;5116579;28;20197;-84
2023/08/24 10:56:14;;;;;;;13.15;4.10;;;;;;;-145.69;nan;51517.66;5116656;28;20201;-84
2023/08/24 10:58:41;;;;;;;11.30;4.05;;;;;;;-145.69;nan;51533.50;5116859;28;20662;-83
2023/08/24 11:01:08;;;;;;;11.52;3.40;;;;;;;-145.69;nan;51529.53;5116095;28;20310;-82
2023/08/24 11:03:36;;;;;;;11.85;3.97;;;;;;;-145.69;nan;51517.66;5116415;28;20206;-84
2023/08/24 11:06:18;;;;;;;14.32;3.92;;;;;;;-145.69;nan;51533.50;5115660;28;20205;-84
2023/08/24 11:08:45;;;;;;;9.32;3.30;;;;;;;-145.69;nan;51547.38;5115913;28;20189;-84
2023/08/24 11:11:20;;;;;;;9.20;3.88;;;;;;;-145.69;nan;51509.75;5116588;28;20641;-82
2023/08/24 11:14:19;;;;;;;12.35;3.88;;;;;;;-145.69;nan;51541.44;5116106;28;20239;-86
2023/08/24 11:16:47;;;;;;;9.43;4.05;;;;;;;-145.69;nan;51513.72;5116713;28;20193;-84
2023/08/24 11:19:16;;;;;;;9.63;3.90;;;;;;;-145.69;nan;51505.78;5116483;28;20190;-84
2023/08/24 11:21:43;;;;;;;9.65;3.78;;;;;;;-145.69;nan;51507.78;5116232;28;20201;-84
2023/08/24 11:24:11;;;;;;;12.57;4.13;;;;;;;-145.69;nan;51521.63;5116711;28;20193;-83
2023/08/24 11:26:41;;;;;;;8.90;4.00;;;;;;;-145.69;nan;51521.63;5096484;28;20194;-84
2023/08/24 11:29:07;;;;;;;8.70;3.30;;;;;;;-145.69;nan;51519.66;5115772;28;20197;-84
2023/08/24 11:31:35;;;;;;;9.27;4.15;;;;;;;-145.69;nan;51513.72;5115643;28;20229;-84
2023/08/24 11:34:02;;;;;;;15.13;3.80;;;;;;;-145.69;nan;51513.72;5118316;27;20551;-84
2023/08/24 11:36:30;;;;;;;13.23;4.15;;;;;;;-145.69;nan;51503.81;5115224;28;20201;-84
2023/08/24 11:38:59;;;;;;;10.63;4.43;;;;;;;-145.69;nan;51521.63;5094905;28;20229;-84